»·PEaware :: N1187 KSBA-KSNA

N1187 :: KSBA-KSNA

FLIGHT INFORMATION

Flight Status: Arrived
Operator: Privately registered:
United States
More flights under this callsign
Pilot: Anonymous 12254 (12254)
Aircraft: PILATUS PC-12 EAGLE
(PC12)
More flights by this aircraft type
Origin: KSBA Santa Barbara Mun
United States
Destination: KSNA John Wayne-Orange Co
United States
More flights between these airports :: More routes between these airports
Route: +KWANG VTU V208 SXC SLI
File this flight plan on PilotEdge
Remarks: TEC route SBAP8
Altitude:
(Current/Filed)
9,000ft
Speed:
(Current/Filed)
220kts
Departed: 25-May-19 08:38 AM
Arrived: 25-May-19 09:46 AM
Distance/Time
Traveled:
108nm/1:08
Distance/Time
To Go:
Arrived

Flight Plot

Page will automatically refresh every two minutes.


Map Options




Map Legend


Flown Route
Filed Route
Departure Airport
Arrival Airport
Navaid (VOR, NDB)
Fix

Horizontal Profiles

Position Reports

Time Latitude Longitude Heading Altitude Ground
Speed
25-May-19 08:15 34.425829 -119.836716 189 10ft 0kts
25-May-19 08:16 34.425829 -119.836716 189 10ft 0kts
25-May-19 08:17 34.425829 -119.836716 189 10ft 0kts
25-May-19 08:18 34.425829 -119.836716 189 10ft 0kts
25-May-19 08:19 34.425829 -119.836716 189 10ft 0kts
25-May-19 08:20 34.425829 -119.836716 189 10ft 0kts
25-May-19 08:21 34.425829 -119.836716 189 10ft 0kts
25-May-19 08:22 34.425829 -119.836716 189 10ft 0kts
25-May-19 08:23 34.425829 -119.836716 189 10ft 0kts
25-May-19 08:24 34.425829 -119.836716 189 10ft 0kts
25-May-19 08:25 34.425829 -119.836716 189 10ft 0kts
25-May-19 08:26 34.425829 -119.836716 189 10ft 0kts
25-May-19 08:27 34.425829 -119.836716 189 10ft 0kts
25-May-19 08:28 34.425829 -119.836716 189 10ft 0kts
25-May-19 08:29 34.425829 -119.836716 189 10ft 0kts
25-May-19 08:30 34.425829 -119.836716 189 10ft 0kts
25-May-19 08:31 34.425829 -119.836716 189 10ft 0kts
25-May-19 08:32 34.425829 -119.836716 189 10ft 0kts
25-May-19 08:33 34.425829 -119.836716 189 10ft 0kts
25-May-19 08:34 34.425681 -119.837730 265 11ft 9kts
25-May-19 08:35 34.426758 -119.835259 87 10ft 7kts
25-May-19 08:36 34.427735 -119.834785 311 10ft 15kts
25-May-19 08:37 34.427027 -119.861956 265 658ft 149kts
25-May-19 08:38 34.421382 -119.920516 262 2131ft 190kts
25-May-19 08:39 34.414457 -119.987478 262 2994ft 221kts
25-May-19 08:40 34.408513 -120.058896 264 2994ft 215kts
25-May-19 08:41 34.402403 -120.129928 264 3000ft 209kts
25-May-19 08:42 34.396278 -120.199492 264 3005ft 205kts
25-May-19 08:43 34.390460 -120.268052 264 3009ft 204kts
25-May-19 08:44 34.384487 -120.336449 264 3009ft 203kts
25-May-19 08:45 34.378222 -120.404795 264 3009ft 202kts
25-May-19 08:46 34.371815 -120.472523 264 3008ft 201kts
25-May-19 08:47 34.366026 -120.540077 265 3008ft 202kts
25-May-19 08:48 34.360546 -120.608073 265 3008ft 202kts
25-May-19 08:49 34.355252 -120.674312 265 3009ft 203kts
25-May-19 08:50 34.349851 -120.741248 265 3426ft 184kts
25-May-19 08:51 34.318711 -120.745880 99 4969ft 184kts
25-May-19 08:52 34.318441 -120.681654 99 6490ft 198kts
25-May-19 08:53 34.298832 -120.618500 113 7944ft 206kts
25-May-19 08:54 34.270944 -120.548956 115 8011ft 244kts
25-May-19 08:55 34.241449 -120.476795 115 8275ft 225kts
25-May-19 08:56 34.215230 -120.412633 114 9010ft 219kts
25-May-19 08:57 34.187251 -120.344387 115 9007ft 231kts
25-May-19 08:58 34.158260 -120.273831 115 9002ft 233kts
25-May-19 08:59 34.129359 -120.203615 114 8996ft 232kts
25-May-19 09:00 34.100527 -120.133678 114 8993ft 232kts
25-May-19 09:01 34.071585 -120.063614 114 8991ft 231kts
25-May-19 09:02 34.042757 -119.993985 114 8991ft 230kts
25-May-19 09:03 34.014008 -119.924691 114 8991ft 230kts
25-May-19 09:04 33.985258 -119.855539 114 8991ft 230kts
25-May-19 09:05 33.956500 -119.786508 114 8991ft 230kts
25-May-19 09:06 33.927431 -119.716884 114 8993ft 230kts
25-May-19 09:07 33.898602 -119.647222 117 8996ft 231kts
25-May-19 09:08 33.868960 -119.577216 117 9006ft 234kts
25-May-19 09:09 33.839146 -119.506316 116 9009ft 236kts
25-May-19 09:10 33.809408 -119.435589 116 9012ft 236kts
25-May-19 09:11 33.779470 -119.364566 117 9015ft 236kts
25-May-19 09:12 33.749470 -119.293551 117 9016ft 236kts
25-May-19 09:13 33.719455 -119.222760 117 9007ft 236kts
25-May-19 09:14 33.689408 -119.151937 117 8997ft 236kts
25-May-19 09:15 33.659199 -119.080856 117 8998ft 236kts
25-May-19 09:16 33.629151 -119.010268 118 9000ft 235kts
25-May-19 09:17 33.599175 -118.940122 118 9003ft 233kts
25-May-19 09:18 33.569299 -118.870347 118 9005ft 231kts
25-May-19 09:19 33.539877 -118.801730 117 9008ft 229kts
25-May-19 09:20 33.510626 -118.733533 117 9009ft 228kts
25-May-19 09:21 33.485227 -118.663738 88 8810ft 224kts
25-May-19 09:22 33.493524 -118.593421 81 7403ft 206kts
25-May-19 09:23 33.502335 -118.526365 81 5996ft 201kts
25-May-19 09:24 33.511340 -118.457981 81 5012ft 209kts
25-May-19 09:25 33.520027 -118.390840 81 5006ft 198kts
25-May-19 09:26 33.528157 -118.326790 81 5004ft 196kts
25-May-19 09:27 33.536201 -118.261981 81 5003ft 195kts
25-May-19 09:28 33.544004 -118.197378 81 5004ft 194kts
25-May-19 09:29 33.551603 -118.132938 81 5005ft 194kts
25-May-19 09:31 33.559322 -118.066506 81 5006ft 203kts
25-May-19 09:32 33.575922 -118.003636 38 5011ft 204kts
25-May-19 09:33 33.621046 -117.961629 36 5004ft 205kts
25-May-19 09:34 33.666731 -117.919478 36 5003ft 206kts
25-May-19 09:35 33.712620 -117.877448 36 5001ft 208kts
25-May-19 09:36 33.755666 -117.838530 36 4996ft 170kts
25-May-19 09:37 33.790712 -117.807021 36 4998ft 146kts
25-May-19 09:38 33.828025 -117.776768 3 5007ft 178kts
25-May-19 09:39 33.880642 -117.783017 4 4151ft 202kts
25-May-19 09:40 33.880051 -117.740314 179 3788ft 173kts
25-May-19 09:41 33.837133 -117.759609 229 3382ft 177kts
25-May-19 09:42 33.798030 -117.796609 209 2771ft 182kts
25-May-19 09:43 33.753795 -117.819668 203 1718ft 145kts
25-May-19 09:44 33.723700 -117.838418 207 1027ft 114kts
25-May-19 09:45 33.695398 -117.856348 208 402ft 114kts
25-May-19 09:46 33.675747 -117.869244 270 60ft 10kts
25-May-19 09:47 33.676349 -117.871029 208 60ft 0kts
25-May-19 09:48 33.676349 -117.871029 208 60ft 0kts
25-May-19 09:49 33.676349 -117.871029 208 60ft 0kts
25-May-19 09:50 33.676349 -117.871029 208 60ft 0kts
25-May-19 09:51 33.676349 -117.871029 208 60ft 0kts
25-May-19 09:52 33.676349 -117.871029 208 60ft 0kts
25-May-19 09:53 33.676349 -117.871029 208 60ft 0kts
25-May-19 09:54 33.676349 -117.871029 208 60ft 0kts
25-May-19 09:55 33.676349 -117.871029 208 60ft 0kts
25-May-19 09:56 33.676349 -117.871029 208 60ft 0kts

Navigation Log

Ident Type
Flight plan parsing failed, navigation log unavailable